Time;durP1;ratioP1;P1;durP2;ratioP2;P2;SDS_P1;SDS_P2;PMS_P1;PMS_P2;Temp;Humidity;BMP_temperature;BMP_pressure;BME280_temperature;BME280_humidity;BME280_pressure;Samples;Min_cycle;Max_cycle;Signal;HPM_P1;HPM_P2
2023/03/25 00:01:14;;;;;;;;;0.00;0.00;;;;;;;;5084071;28;9627;-83
2023/03/25 00:03:49;;;;;;;;;2.00;1.00;;;;;;;;5084248;28;8812;-82
2023/03/25 00:06:15;;;;;;;;;0.00;0.00;;;;;;;;5083934;28;11025;-82
2023/03/25 00:08:40;;;;;;;;;2.00;0.75;;;;;;;;5083719;28;11435;-83
2023/03/25 00:11:07;;;;;;;;;2.50;1.75;;;;;;;;5085098;28;11191;-82
2023/03/25 00:13:32;;;;;;;;;0.00;0.00;;;;;;;;5084724;28;8849;-83
2023/03/25 00:15:58;;;;;;;;;1.75;0.00;;;;;;;;5067211;28;11032;-82
2023/03/25 00:18:25;;;;;;;;;1.75;0.25;;;;;;;;5083619;28;9958;-83
2023/03/25 00:20:51;;;;;;;;;3.75;1.00;;;;;;;;5083916;28;8816;-83
2023/03/25 00:23:17;;;;;;;;;2.00;0.00;;;;;;;;5085041;28;11112;-82
2023/03/25 00:25:43;;;;;;;;;0.00;0.00;;;;;;;;5082512;28;11458;-82
2023/03/25 00:28:09;;;;;;;;;1.00;1.00;;;;;;;;5082960;28;10137;-83
2023/03/25 00:30:36;;;;;;;;;0.25;0.25;;;;;;;;5083317;28;11102;-82
2023/03/25 00:33:01;;;;;;;;;3.25;1.00;;;;;;;;5085167;28;8804;-82
2023/03/25 00:35:27;;;;;;;;;0.75;0.00;;;;;;;;5083428;28;11934;-82
2023/03/25 00:37:59;;;;;;;;;0.25;0.25;;;;;;;;5084751;28;8816;-82
2023/03/25 00:40:34;;;;;;;;;0.00;0.00;;;;;;;;5072076;28;11497;-83
2023/03/25 00:43:00;;;;;;;;;2.25;0.25;;;;;;;;5046387;28;11270;-83
2023/03/25 00:45:26;;;;;;;;;2.50;2.00;;;;;;;;5064457;28;11413;-83
2023/03/25 00:47:51;;;;;;;;;5.50;0.00;;;;;;;;5064513;28;11525;-83
2023/03/25 00:50:17;;;;;;;;;2.00;0.75;;;;;;;;5067636;28;8827;-82
2023/03/25 00:52:42;;;;;;;;;0.00;0.00;;;;;;;;5070214;28;8840;-82
2023/03/25 00:55:07;;;;;;;;;7.50;1.00;;;;;;;;5045836;28;8910;-83
2023/03/25 00:57:33;;;;;;;;;0.00;0.00;;;;;;;;5063925;28;8824;-83
2023/03/25 00:59:58;;;;;;;;;0.75;0.25;;;;;;;;5046138;28;8828;-83
2023/03/25 01:02:23;;;;;;;;;0.75;0.75;;;;;;;;5063965;28;8898;-83
2023/03/25 01:04:49;;;;;;;;;0.75;0.75;;;;;;;;5066045;28;8833;-83
2023/03/25 01:07:18;;;;;;;;;6.00;0.00;;;;;;;;5084528;28;8912;-83
2023/03/25 01:09:46;;;;;;;;;1.00;1.00;;;;;;;;5065650;28;9183;-83
2023/03/25 01:12:12;;;;;;;;;8.50;2.25;;;;;;;;5084510;28;11198;-83
2023/03/25 01:14:38;;;;;;;;;2.00;1.00;;;;;;;;5065531;28;11174;-83
2023/03/25 01:17:05;;;;;;;;;1.50;1.00;;;;;;;;5067497;28;11467;-83
2023/03/25 01:19:31;;;;;;;;;1.25;0.00;;;;;;;;5082636;28;8797;-83
2023/03/25 01:21:56;;;;;;;;;2.00;0.00;;;;;;;;5083970;28;11276;-83
2023/03/25 01:24:21;;;;;;;;;4.00;1.00;;;;;;;;5083762;28;8818;-83
2023/03/25 01:26:47;;;;;;;;;0.00;0.00;;;;;;;;5082044;28;10415;-82
2023/03/25 01:29:13;;;;;;;;;1.25;0.75;;;;;;;;5083678;28;8829;-83
2023/03/25 01:31:39;;;;;;;;;4.50;1.25;;;;;;;;5084018;28;9723;-83
2023/03/25 01:34:06;;;;;;;;;1.00;1.00;;;;;;;;5083994;28;11411;-83
2023/03/25 01:36:31;;;;;;;;;2.00;0.00;;;;;;;;5083109;28;11455;-83
2023/03/25 01:38:57;;;;;;;;;2.25;0.00;;;;;;;;5081914;28;11528;-83
2023/03/25 01:41:24;;;;;;;;;1.50;1.00;;;;;;;;5084006;28;8782;-83
2023/03/25 01:44:03;;;;;;;;;2.50;0.50;;;;;;;;5083104;28;10812;-83
2023/03/25 01:46:29;;;;;;;;;0.50;0.50;;;;;;;;5065526;28;11469;-83
2023/03/25 01:48:55;;;;;;;;;8.00;1.00;;;;;;;;5082189;28;10996;-83
2023/03/25 01:51:23;;;;;;;;;3.25;1.75;;;;;;;;5073722;28;8819;-83
2023/03/25 01:53:50;;;;;;;;;2.00;2.00;;;;;;;;5082975;28;11391;-83
2023/03/25 01:56:18;;;;;;;;;1.75;0.50;;;;;;;;5081803;28;11409;-83
2023/03/25 01:58:44;;;;;;;;;1.25;0.50;;;;;;;;5081453;28;11218;-83
2023/03/25 02:01:12;;;;;;;;;1.50;1.50;;;;;;;;5065338;28;11087;-83
2023/03/25 02:03:38;;;;;;;;;2.25;1.00;;;;;;;;5065448;28;8816;-83
2023/03/25 02:06:08;;;;;;;;;1.75;1.75;;;;;;;;5064624;28;11499;-83
2023/03/25 02:08:37;;;;;;;;;1.50;0.50;;;;;;;;5065233;28;8803;-83
2023/03/25 02:11:03;;;;;;;;;0.00;0.00;;;;;;;;5083294;28;11082;-83
2023/03/25 02:13:28;;;;;;;;;1.50;1.50;;;;;;;;5064993;28;11184;-82
2023/03/25 02:16:13;;;;;;;;;6.25;1.00;;;;;;;;5082960;28;8825;-83
2023/03/25 02:18:42;;;;;;;;;2.50;1.00;;;;;;;;5065162;28;8761;-83
2023/03/25 02:21:11;;;;;;;;;2.75;1.00;;;;;;;;5064604;28;10753;-83
2023/03/25 02:23:56;;;;;;;;;1.00;1.00;;;;;;;;5065280;28;11313;-83
2023/03/25 02:26:48;;;;;;;;;3.50;1.00;;;;;;;;5082588;28;11473;-83
2023/03/25 02:29:22;;;;;;;;;3.50;1.25;;;;;;;;5057210;28;11387;-83
2023/03/25 02:32:06;;;;;;;;;0.00;0.00;;;;;;;;5064844;28;11188;-82
2023/03/25 02:34:40;;;;;;;;;5.00;0.25;;;;;;;;5064935;28;11101;-83
2023/03/25 02:37:12;;;;;;;;;4.00;1.00;;;;;;;;5080935;28;11448;-83
2023/03/25 02:39:46;;;;;;;;;2.75;0.25;;;;;;;;5064757;28;11836;-83
2023/03/25 02:42:19;;;;;;;;;3.75;0.00;;;;;;;;5081638;28;11426;-83
2023/03/25 02:44:59;;;;;;;;;1.75;1.00;;;;;;;;5082504;28;11146;-83
2023/03/25 02:47:27;;;;;;;;;6.75;1.00;;;;;;;;5082713;28;11437;-83
2023/03/25 02:50:06;;;;;;;;;1.50;0.00;;;;;;;;5080776;28;11050;-83
2023/03/25 02:52:48;;;;;;;;;1.75;1.00;;;;;;;;5052191;28;11236;-82
2023/03/25 02:55:16;;;;;;;;;2.50;2.00;;;;;;;;5044095;28;11458;-82
2023/03/25 02:57:44;;;;;;;;;1.00;1.00;;;;;;;;5044209;28;11462;-83
2023/03/25 03:00:14;;;;;;;;;2.25;1.50;;;;;;;;5044119;28;11508;-83
2023/03/25 03:02:43;;;;;;;;;3.25;2.00;;;;;;;;5062758;28;11172;-83
2023/03/25 03:05:20;;;;;;;;;4.50;0.75;;;;;;;;5061721;28;11415;-83
2023/03/25 03:07:48;;;;;;;;;1.00;1.00;;;;;;;;5060871;28;11881;-83
2023/03/25 03:10:21;;;;;;;;;5.50;1.75;;;;;;;;5062361;28;10739;-83
2023/03/25 03:12:56;;;;;;;;;1.25;1.25;;;;;;;;5051641;28;11558;-83
2023/03/25 03:15:24;;;;;;;;;1.50;0.50;;;;;;;;5063951;28;11448;-83
2023/03/25 03:17:52;;;;;;;;;1.50;0.25;;;;;;;;5063949;28;11500;-83
2023/03/25 03:20:25;;;;;;;;;1.50;0.25;;;;;;;;5064013;28;11175;-83
2023/03/25 03:22:57;;;;;;;;;1.75;0.50;;;;;;;;5080915;28;11436;-83
2023/03/25 03:25:25;;;;;;;;;1.00;1.00;;;;;;;;5063742;28;11143;-83
2023/03/25 03:28:03;;;;;;;;;2.00;1.00;;;;;;;;5063975;28;11446;-83
2023/03/25 03:30:53;;;;;;;;;1.75;0.50;;;;;;;;5081912;28;11925;-83
2023/03/25 03:33:24;;;;;;;;;2.25;1.00;;;;;;;;5058280;28;11021;-83
2023/03/25 03:35:56;;;;;;;;;1.50;1.25;;;;;;;;5064171;28;11020;-83
2023/03/25 03:38:24;;;;;;;;;3.00;0.00;;;;;;;;5080522;28;11401;-83
2023/03/25 03:40:51;;;;;;;;;0.00;0.00;;;;;;;;5081086;28;11458;-83
2023/03/25 03:43:35;;;;;;;;;1.75;1.00;;;;;;;;5081421;28;11052;-83
2023/03/25 03:46:04;;;;;;;;;1.00;0.75;;;;;;;;5080575;28;11164;-83
2023/03/25 03:48:32;;;;;;;;;1.00;0.00;;;;;;;;5081556;28;11424;-83
2023/03/25 03:51:08;;;;;;;;;1.00;0.00;;;;;;;;5069125;28;10949;-84
2023/03/25 03:53:36;;;;;;;;;6.00;0.25;;;;;;;;5064139;28;10794;-83
2023/03/25 03:56:02;;;;;;;;;1.00;1.00;;;;;;;;5063226;28;11030;-84
2023/03/25 03:58:33;;;;;;;;;2.00;1.00;;;;;;;;5081184;28;10967;-83
2023/03/25 04:01:10;;;;;;;;;0.00;0.00;;;;;;;;5084362;28;9730;-83
2023/03/25 04:03:56;;;;;;;;;1.00;1.00;;;;;;;;5085025;28;11090;-83
2023/03/25 04:06:28;;;;;;;;;0.25;0.25;;;;;;;;5084518;28;11066;-83
2023/03/25 04:08:58;;;;;;;;;0.00;0.00;;;;;;;;5083908;28;11396;-83
2023/03/25 04:11:32;;;;;;;;;2.00;0.50;;;;;;;;5085032;28;11174;-83
2023/03/25 04:13:59;;;;;;;;;1.00;0.00;;;;;;;;5066808;28;11104;-83
2023/03/25 04:16:25;;;;;;;;;1.00;0.00;;;;;;;;5066952;28;11009;-82
2023/03/25 04:18:52;;;;;;;;;2.00;0.00;;;;;;;;5066570;28;11556;-83
2023/03/25 04:21:18;;;;;;;;;0.00;0.00;;;;;;;;5066927;28;8800;-83
2023/03/25 04:23:44;;;;;;;;;1.00;0.00;;;;;;;;5066824;28;10715;-82
2023/03/25 04:26:11;;;;;;;;;0.00;0.00;;;;;;;;5066657;28;8851;-82
2023/03/25 04:28:36;;;;;;;;;0.00;0.00;;;;;;;;5084624;28;11271;-82
2023/03/25 04:31:04;;;;;;;;;1.50;0.00;;;;;;;;5083217;28;11054;-83
2023/03/25 04:33:30;;;;;;;;;1.00;1.00;;;;;;;;5083542;28;8817;-82
2023/03/25 04:35:56;;;;;;;;;0.25;0.00;;;;;;;;5085014;28;10790;-82
2023/03/25 04:38:21;;;;;;;;;2.00;0.00;;;;;;;;5084628;28;10963;-83
2023/03/25 04:40:46;;;;;;;;;0.00;0.00;;;;;;;;5066829;28;8827;-83
2023/03/25 04:43:14;;;;;;;;;1.50;0.00;;;;;;;;5083319;28;8812;-83
2023/03/25 04:45:48;;;;;;;;;1.00;1.00;;;;;;;;5084332;28;8789;-83
2023/03/25 04:48:24;;;;;;;;;1.50;0.00;;;;;;;;5066230;28;11412;-82
2023/03/25 04:50:50;;;;;;;;;0.50;0.25;;;;;;;;5066694;28;10733;-82
2023/03/25 04:53:16;;;;;;;;;3.00;1.00;;;;;;;;5066074;28;10682;-83
2023/03/25 04:55:46;;;;;;;;;0.00;0.00;;;;;;;;5083967;28;8835;-83
2023/03/25 04:58:11;;;;;;;;;3.00;0.00;;;;;;;;5066205;28;10960;-83
2023/03/25 05:00:37;;;;;;;;;0.00;0.00;;;;;;;;5065454;28;11040;-83
2023/03/25 05:03:02;;;;;;;;;1.00;0.00;;;;;;;;5084598;28;8786;-83
2023/03/25 05:05:27;;;;;;;;;3.25;0.00;;;;;;;;5084272;28;8849;-83
2023/03/25 05:07:53;;;;;;;;;0.25;0.25;;;;;;;;5066319;28;10090;-83
2023/03/25 05:10:20;;;;;;;;;5.00;0.00;;;;;;;;5081696;28;8813;-82
2023/03/25 05:12:46;;;;;;;;;0.00;0.00;;;;;;;;5084360;28;8908;-83
2023/03/25 05:15:12;;;;;;;;;0.00;0.00;;;;;;;;5083657;28;10792;-83
2023/03/25 05:17:38;;;;;;;;;2.50;1.25;;;;;;;;5083643;28;8785;-83
2023/03/25 05:20:09;;;;;;;;;2.25;0.00;;;;;;;;5066216;28;8837;-83
2023/03/25 05:22:47;;;;;;;;;0.00;0.00;;;;;;;;5082088;28;10748;-82
2023/03/25 05:25:14;;;;;;;;;3.00;0.00;;;;;;;;5082182;28;11034;-82
2023/03/25 05:27:40;;;;;;;;;1.25;0.00;;;;;;;;5065982;28;11125;-82
2023/03/25 05:30:06;;;;;;;;;0.50;0.50;;;;;;;;5083577;28;8800;-83
2023/03/25 05:32:34;;;;;;;;;0.50;0.50;;;;;;;;5065739;28;8896;-83
2023/03/25 05:35:01;;;;;;;;;1.75;0.00;;;;;;;;5051214;28;8744;-83
2023/03/25 05:37:27;;;;;;;;;0.75;0.75;;;;;;;;5059293;28;11017;-83
2023/03/25 05:39:52;;;;;;;;;1.00;0.00;;;;;;;;5082215;28;11021;-82
2023/03/25 05:42:21;;;;;;;;;0.00;0.00;;;;;;;;5084154;28;8793;-83
2023/03/25 05:44:49;;;;;;;;;3.50;0.00;;;;;;;;5082959;28;8841;-83
2023/03/25 05:47:16;;;;;;;;;0.00;0.00;;;;;;;;5082441;28;10836;-82
2023/03/25 05:49:41;;;;;;;;;1.00;0.00;;;;;;;;5082017;28;10896;-82
2023/03/25 05:52:08;;;;;;;;;0.00;0.00;;;;;;;;5083519;28;11080;-83
2023/03/25 05:54:37;;;;;;;;;0.00;0.00;;;;;;;;5081613;28;8837;-82
2023/03/25 05:57:03;;;;;;;;;8.25;1.00;;;;;;;;5065393;28;11547;-83
2023/03/25 05:59:28;;;;;;;;;0.75;0.00;;;;;;;;5082536;28;11502;-82
2023/03/25 06:01:53;;;;;;;;;0.00;0.00;;;;;;;;5083449;28;8781;-82
2023/03/25 06:04:20;;;;;;;;;0.00;0.00;;;;;;;;5083446;28;8773;-83
2023/03/25 06:06:46;;;;;;;;;0.00;0.00;;;;;;;;5065428;28;10074;-83
2023/03/25 06:09:11;;;;;;;;;0.50;0.00;;;;;;;;5065242;28;11030;-82
2023/03/25 06:11:45;;;;;;;;;0.50;0.25;;;;;;;;5081816;28;8856;-83
2023/03/25 06:14:10;;;;;;;;;0.00;0.00;;;;;;;;5082976;28;8817;-83
2023/03/25 06:16:36;;;;;;;;;0.25;0.25;;;;;;;;5083122;28;11088;-82
2023/03/25 06:19:01;;;;;;;;;2.00;1.00;;;;;;;;5082010;28;8825;-83
2023/03/25 06:21:27;;;;;;;;;1.00;1.00;;;;;;;;5081562;28;8801;-83
2023/03/25 06:23:53;;;;;;;;;0.00;0.00;;;;;;;;5082863;28;8783;-83
2023/03/25 06:26:19;;;;;;;;;1.50;1.50;;;;;;;;5082639;28;11321;-82
2023/03/25 06:28:45;;;;;;;;;1.25;0.25;;;;;;;;5082010;28;8793;-83
2023/03/25 06:31:15;;;;;;;;;4.00;0.00;;;;;;;;5064908;28;11849;-82
2023/03/25 06:33:44;;;;;;;;;0.75;0.25;;;;;;;;5081105;28;8797;-82
2023/03/25 06:36:11;;;;;;;;;0.00;0.00;;;;;;;;5081810;28;11227;-83
2023/03/25 06:38:37;;;;;;;;;0.00;0.00;;;;;;;;5064471;28;11008;-83
2023/03/25 06:41:02;;;;;;;;;1.25;0.00;;;;;;;;5082845;28;11920;-83
2023/03/25 06:43:28;;;;;;;;;1.50;1.25;;;;;;;;5082110;28;11045;-83
2023/03/25 06:45:53;;;;;;;;;2.00;0.00;;;;;;;;5064522;28;10181;-83
2023/03/25 06:48:19;;;;;;;;;0.75;0.75;;;;;;;;5083037;28;8808;-82
2023/03/25 06:50:44;;;;;;;;;1.00;1.00;;;;;;;;5064469;28;8844;-82
2023/03/25 06:53:10;;;;;;;;;7.00;0.25;;;;;;;;5082418;28;8831;-82
2023/03/25 06:55:35;;;;;;;;;0.25;0.25;;;;;;;;5082472;28;8809;-82
2023/03/25 06:58:00;;;;;;;;;3.00;0.00;;;;;;;;5082001;28;8840;-83
2023/03/25 07:00:27;;;;;;;;;1.00;1.00;;;;;;;;5082372;28;8793;-83
2023/03/25 07:02:53;;;;;;;;;1.00;1.00;;;;;;;;5082666;28;8908;-83
2023/03/25 07:05:18;;;;;;;;;2.00;0.50;;;;;;;;5082438;28;11184;-83
2023/03/25 07:07:44;;;;;;;;;0.00;0.00;;;;;;;;5082146;28;8833;-84
2023/03/25 07:10:12;;;;;;;;;1.75;0.00;;;;;;;;5082780;28;8836;-83
2023/03/25 07:12:38;;;;;;;;;0.25;0.00;;;;;;;;5082316;28;8758;-83
2023/03/25 07:15:04;;;;;;;;;1.00;1.00;;;;;;;;5081993;28;11701;-82
2023/03/25 07:17:29;;;;;;;;;0.00;0.00;;;;;;;;5082633;28;8782;-84
2023/03/25 07:19:55;;;;;;;;;1.00;0.00;;;;;;;;5063799;28;8847;-84
2023/03/25 07:22:20;;;;;;;;;1.00;1.00;;;;;;;;5064519;28;8833;-84
2023/03/25 07:24:45;;;;;;;;;1.75;0.00;;;;;;;;5063682;28;9875;-84
2023/03/25 07:27:11;;;;;;;;;2.25;0.25;;;;;;;;5081998;28;8785;-84
2023/03/25 07:29:36;;;;;;;;;1.00;0.00;;;;;;;;5063613;28;8824;-83
2023/03/25 07:32:02;;;;;;;;;1.00;0.00;;;;;;;;5081985;28;11491;-83
2023/03/25 07:34:27;;;;;;;;;1.25;0.00;;;;;;;;5082246;28;9984;-84
2023/03/25 07:36:52;;;;;;;;;1.75;1.00;;;;;;;;5085831;28;8805;-83
2023/03/25 07:39:18;;;;;;;;;3.00;0.00;;;;;;;;5084291;28;8826;-84
2023/03/25 07:41:43;;;;;;;;;1.00;1.00;;;;;;;;5085680;28;8817;-84
2023/03/25 07:44:08;;;;;;;;;1.00;1.00;;;;;;;;5085267;28;8943;-85
2023/03/25 07:46:33;;;;;;;;;0.00;0.00;;;;;;;;5085234;28;8924;-85
2023/03/25 07:48:59;;;;;;;;;1.25;0.75;;;;;;;;5067124;28;8844;-85
2023/03/25 07:51:24;;;;;;;;;0.00;0.00;;;;;;;;5067584;28;8864;-84
2023/03/25 07:53:49;;;;;;;;;0.00;0.00;;;;;;;;5085505;28;8890;-85
2023/03/25 07:56:15;;;;;;;;;0.50;0.25;;;;;;;;5083411;28;8830;-84
2023/03/25 07:58:40;;;;;;;;;3.25;0.25;;;;;;;;5083655;28;8841;-85
2023/03/25 08:01:06;;;;;;;;;1.00;1.00;;;;;;;;5084049;28;8833;-84
2023/03/25 08:03:32;;;;;;;;;0.25;0.00;;;;;;;;5085490;28;8805;-84
2023/03/25 08:05:59;;;;;;;;;4.00;1.00;;;;;;;;5085134;28;8817;-84
2023/03/25 08:08:25;;;;;;;;;1.00;0.50;;;;;;;;5084404;28;8778;-83
2023/03/25 08:10:50;;;;;;;;;0.25;0.25;;;;;;;;5067113;28;10509;-85
2023/03/25 08:13:15;;;;;;;;;1.00;0.00;;;;;;;;5083590;28;9929;-83
2023/03/25 08:15:41;;;;;;;;;0.75;0.75;;;;;;;;5083984;28;8822;-82
2023/03/25 08:18:06;;;;;;;;;0.00;0.00;;;;;;;;5066799;28;8836;-82
2023/03/25 08:20:32;;;;;;;;;2.50;0.00;;;;;;;;5067065;28;8805;-83
2023/03/25 08:22:58;;;;;;;;;1.00;0.00;;;;;;;;5085274;28;8789;-83
2023/03/25 08:25:24;;;;;;;;;3.75;1.25;;;;;;;;5066136;28;8845;-83
2023/03/25 08:27:49;;;;;;;;;0.00;0.00;;;;;;;;5085026;28;8767;-82
2023/03/25 08:30:14;;;;;;;;;1.00;0.00;;;;;;;;5084508;28;10626;-80
2023/03/25 08:32:54;;;;;;;;;1.00;1.00;;;;;;;;5081013;28;8828;-81
2023/03/25 08:35:22;;;;;;;;;1.50;0.00;;;;;;;;5054818;28;8762;-81
2023/03/25 08:37:47;;;;;;;;;0.00;0.00;;;;;;;;5066501;28;10238;-82
2023/03/25 08:40:15;;;;;;;;;1.00;0.00;;;;;;;;5046370;28;10702;-82
2023/03/25 08:42:45;;;;;;;;;0.00;0.00;;;;;;;;5073753;28;9682;-82
2023/03/25 08:45:10;;;;;;;;;0.00;0.00;;;;;;;;5065786;28;10603;-81
2023/03/25 08:47:46;;;;;;;;;0.00;0.00;;;;;;;;5066724;28;10322;-80
2023/03/25 08:50:15;;;;;;;;;1.00;0.00;;;;;;;;5066037;28;8739;-84
2023/03/25 08:52:56;;;;;;;;;1.00;1.00;;;;;;;;5082439;28;10628;-84
2023/03/25 08:55:28;;;;;;;;;1.00;1.00;;;;;;;;5066189;28;9742;-84
2023/03/25 08:57:54;;;;;;;;;0.00;0.00;;;;;;;;5053767;28;10552;-85
2023/03/25 09:00:23;;;;;;;;;0.25;0.25;;;;;;;;5062608;28;8797;-84
2023/03/25 09:02:48;;;;;;;;;0.00;0.00;;;;;;;;5056026;28;8786;-84
2023/03/25 09:05:14;;;;;;;;;4.00;1.00;;;;;;;;5042535;28;10496;-85
2023/03/25 09:07:40;;;;;;;;;5.00;0.50;;;;;;;;5043506;28;8777;-84
2023/03/25 09:10:06;;;;;;;;;1.00;1.00;;;;;;;;5042686;28;10438;-84
2023/03/25 09:12:31;;;;;;;;;2.50;0.00;;;;;;;;5044083;28;8802;-84
2023/03/25 09:14:56;;;;;;;;;3.00;1.00;;;;;;;;5042512;28;8936;-84
2023/03/25 09:17:22;;;;;;;;;0.00;0.00;;;;;;;;5043272;28;9664;-84
2023/03/25 09:19:47;;;;;;;;;0.00;0.00;;;;;;;;5056317;28;8830;-84
2023/03/25 09:22:13;;;;;;;;;0.00;0.00;;;;;;;;5062351;28;9940;-85
2023/03/25 09:24:39;;;;;;;;;1.50;0.25;;;;;;;;5061936;28;8833;-84
2023/03/25 09:27:05;;;;;;;;;5.25;0.00;;;;;;;;5062576;28;8763;-84
2023/03/25 09:29:30;;;;;;;;;0.00;0.00;;;;;;;;5063577;28;11462;-84
2023/03/25 09:31:57;;;;;;;;;0.00;0.00;;;;;;;;5062546;28;11062;-84
2023/03/25 09:34:22;;;;;;;;;1.00;1.00;;;;;;;;5063914;28;8822;-84
2023/03/25 09:36:48;;;;;;;;;2.50;0.00;;;;;;;;5062272;28;11289;-84
2023/03/25 09:39:13;;;;;;;;;2.50;0.25;;;;;;;;5062381;28;9075;-84
2023/03/25 09:41:49;;;;;;;;;0.75;0.00;;;;;;;;5062399;28;8799;-83
2023/03/25 09:44:21;;;;;;;;;2.00;0.00;;;;;;;;5062093;28;8771;-84
2023/03/25 09:46:47;;;;;;;;;5.00;1.00;;;;;;;;5062183;28;10486;-82
2023/03/25 09:49:15;;;;;;;;;1.25;0.00;;;;;;;;5052422;28;10412;-84
2023/03/25 09:51:42;;;;;;;;;1.50;0.00;;;;;;;;5023513;28;62351;-83
2023/03/25 09:54:15;;;;;;;;;0.00;0.00;;;;;;;;5001982;28;61827;-84
2023/03/25 09:56:42;;;;;;;;;2.00;0.75;;;;;;;;5000459;28;61956;-83
2023/03/25 09:59:18;;;;;;;;;1.50;1.00;;;;;;;;5005551;28;61922;-84
2023/03/25 10:02:02;;;;;;;;;1.00;0.50;;;;;;;;5023246;28;62181;-85
2023/03/25 10:04:30;;;;;;;;;2.00;1.00;;;;;;;;5004694;28;61892;-85
2023/03/25 10:06:58;;;;;;;;;1.50;1.00;;;;;;;;5005099;28;61944;-85
2023/03/25 10:09:24;;;;;;;;;0.00;0.00;;;;;;;;5004741;28;61785;-84
2023/03/25 10:11:58;;;;;;;;;0.00;0.00;;;;;;;;5026615;28;63547;-84
2023/03/25 10:14:28;;;;;;;;;2.00;0.50;;;;;;;;5044810;28;8790;-84
2023/03/25 10:16:54;;;;;;;;;1.25;1.00;;;;;;;;5045514;28;10404;-83
2023/03/25 10:19:19;;;;;;;;;2.00;0.00;;;;;;;;5044651;28;10453;-84
2023/03/25 10:21:51;;;;;;;;;0.00;0.00;;;;;;;;5063124;28;8848;-84
2023/03/25 10:24:21;;;;;;;;;1.00;1.00;;;;;;;;5061576;28;8816;-84
2023/03/25 10:26:53;;;;;;;;;2.25;0.00;;;;;;;;5044205;28;11416;-85
2023/03/25 10:29:20;;;;;;;;;0.00;0.00;;;;;;;;5062576;28;10214;-86
2023/03/25 10:31:51;;;;;;;;;1.75;0.00;;;;;;;;5044777;28;10369;-86
2023/03/25 10:34:18;;;;;;;;;0.00;0.00;;;;;;;;5062913;28;10194;-85
2023/03/25 10:36:48;;;;;;;;;0.00;0.00;;;;;;;;5044890;28;10354;-86
2023/03/25 10:39:17;;;;;;;;;0.25;0.25;;;;;;;;5044750;28;10191;-85
2023/03/25 10:41:45;;;;;;;;;1.25;0.00;;;;;;;;5044691;28;10336;-84
2023/03/25 10:44:11;;;;;;;;;0.50;0.50;;;;;;;;5064505;28;10126;-82
2023/03/25 10:46:46;;;;;;;;;0.00;0.00;;;;;;;;5064645;28;10000;-83
2023/03/25 10:49:16;;;;;;;;;2.00;0.00;;;;;;;;5082684;28;8741;-82
2023/03/25 10:51:42;;;;;;;;;4.00;2.00;;;;;;;;5082550;28;11210;-84
2023/03/25 10:54:10;;;;;;;;;4.50;0.00;;;;;;;;5082815;28;10265;-83
2023/03/25 10:56:38;;;;;;;;;0.00;0.00;;;;;;;;5077503;28;8842;-84
2023/03/25 10:59:09;;;;;;;;;0.00;0.00;;;;;;;;5045035;28;10091;-84
2023/03/25 11:01:39;;;;;;;;;1.75;0.00;;;;;;;;5063021;28;10190;-83
2023/03/25 11:04:06;;;;;;;;;2.00;0.50;;;;;;;;5062273;28;9748;-83
2023/03/25 11:06:39;;;;;;;;;0.50;0.00;;;;;;;;5063002;28;10111;-84
2023/03/25 11:09:07;;;;;;;;;0.00;0.00;;;;;;;;5062485;28;10011;-82
2023/03/25 11:11:36;;;;;;;;;1.75;1.00;;;;;;;;5062216;28;10119;-80
2023/03/25 11:14:02;;;;;;;;;0.75;0.00;;;;;;;;5067151;28;10045;-80
2023/03/25 11:16:32;;;;;;;;;1.00;0.00;;;;;;;;5063082;28;9804;-81
2023/03/25 11:19:03;;;;;;;;;0.00;0.00;;;;;;;;5043738;28;8789;-81
2023/03/25 11:21:31;;;;;;;;;0.00;0.00;;;;;;;;5044278;28;10405;-80
2023/03/25 11:23:57;;;;;;;;;3.00;0.00;;;;;;;;5062112;28;9879;-81
2023/03/25 11:26:24;;;;;;;;;0.25;0.00;;;;;;;;5061751;28;10080;-82
2023/03/25 11:28:53;;;;;;;;;0.50;0.00;;;;;;;;5061664;28;8753;-82
2023/03/25 11:31:20;;;;;;;;;1.75;1.00;;;;;;;;5062621;28;9878;-82
2023/03/25 11:33:58;;;;;;;;;1.00;1.00;;;;;;;;5062500;28;9855;-82
2023/03/25 11:36:26;;;;;;;;;0.25;0.25;;;;;;;;5044160;28;9872;-82
2023/03/25 11:38:55;;;;;;;;;3.00;0.50;;;;;;;;5044098;28;10120;-81
2023/03/25 11:41:21;;;;;;;;;4.50;1.00;;;;;;;;5062379;28;9976;-81
2023/03/25 11:43:47;;;;;;;;;1.25;0.00;;;;;;;;5043537;28;9820;-83
2023/03/25 11:46:15;;;;;;;;;2.50;0.00;;;;;;;;5049698;28;9765;-82
2023/03/25 11:48:41;;;;;;;;;1.67;0.67;;;;;;;;5063930;28;9688;-83
2023/03/25 11:51:14;;;;;;;;;1.75;0.75;;;;;;;;5081691;28;9611;-83
2023/03/25 11:53:44;;;;;;;;;0.00;0.00;;;;;;;;5080559;28;10816;-81
2023/03/25 11:56:10;;;;;;;;;1.50;1.50;;;;;;;;5081469;28;9647;-79
2023/03/25 11:58:37;;;;;;;;;0.00;0.00;;;;;;;;5080316;28;9665;-78
2023/03/25 12:01:04;;;;;;;;;0.00;0.00;;;;;;;;5059166;28;10013;-80
2023/03/25 12:03:30;;;;;;;;;0.00;0.00;;;;;;;;5043945;28;9590;-80
2023/03/25 12:06:13;;;;;;;;;0.25;0.25;;;;;;;;5043391;28;9909;-81
2023/03/25 12:08:43;;;;;;;;;0.00;0.00;;;;;;;;5061774;28;9779;-80
2023/03/25 12:11:12;;;;;;;;;0.00;0.00;;;;;;;;5061372;28;10712;-80
2023/03/25 12:14:16;;;;;;;;;0.00;0.00;;;;;;;;5056595;28;9710;-81
2023/03/25 12:16:51;;;;;;;;;0.25;0.00;;;;;;;;5021265;28;9646;-80
2023/03/25 12:19:23;;;;;;;;;1.75;0.25;;;;;;;;5038758;28;9644;-80
2023/03/25 12:22:00;;;;;;;;;0.25;0.25;;;;;;;;5041828;28;9683;-80
2023/03/25 12:24:28;;;;;;;;;0.50;0.50;;;;;;;;5025512;28;10505;-80
2023/03/25 12:26:54;;;;;;;;;1.00;1.00;;;;;;;;5037599;28;9581;-80
2023/03/25 12:29:22;;;;;;;;;0.00;0.00;;;;;;;;5005683;28;9821;-80
2023/03/25 12:31:50;;;;;;;;;0.00;0.00;;;;;;;;5005844;28;10014;-81
2023/03/25 12:34:16;;;;;;;;;0.50;0.00;;;;;;;;5005774;28;9782;-80
2023/03/25 12:36:47;;;;;;;;;1.00;0.00;;;;;;;;5006057;28;9905;-80
2023/03/25 12:39:28;;;;;;;;;0.67;0.00;;;;;;;;5031853;28;8735;-79
2023/03/25 12:42:09;;;;;;;;;0.00;0.00;;;;;;;;5032612;28;9590;-80
2023/03/25 12:44:37;;;;;;;;;2.00;0.75;;;;;;;;5013972;28;9548;-80
2023/03/25 12:47:16;;;;;;;;;0.00;0.00;;;;;;;;5028557;28;9535;-80
2023/03/25 12:49:51;;;;;;;;;0.67;0.00;;;;;;;;5075062;28;9480;-82
2023/03/25 12:52:26;;;;;;;;;0.00;0.00;;;;;;;;5074940;28;10440;-81
2023/03/25 12:55:10;;;;;;;;;0.00;0.00;;;;;;;;5055447;28;9496;-82
2023/03/25 12:57:46;;;;;;;;;1.00;1.00;;;;;;;;5073958;28;9515;-80
2023/03/25 13:00:24;;;;;;;;;2.00;0.00;;;;;;;;5062864;28;9278;-81
2023/03/25 13:03:16;;;;;;;;;1.00;0.00;;;;;;;;5055857;28;10121;-81
2023/03/25 13:05:59;;;;;;;;;0.33;0.33;;;;;;;;4963816;28;9356;-83
2023/03/25 13:08:29;;;;;;;;;1.00;1.00;;;;;;;;4963668;28;9325;-80
2023/03/25 13:10:57;;;;;;;;;5.00;1.00;;;;;;;;4979926;28;9359;-82
2023/03/25 13:13:26;;;;;;;;;2.00;0.67;;;;;;;;4978103;28;9490;-80
2023/03/25 13:15:57;;;;;;;;;0.00;0.00;;;;;;;;4963274;28;10198;-82
2023/03/25 13:18:29;;;;;;;;;0.00;0.00;;;;;;;;4980360;28;9211;-80
2023/03/25 13:21:00;;;;;;;;;3.50;1.25;;;;;;;;4980399;28;9392;-80
2023/03/25 13:23:26;;;;;;;;;3.00;1.67;;;;;;;;4981081;28;9733;-79
2023/03/25 13:25:56;;;;;;;;;2.67;0.00;;;;;;;;4979100;28;9592;-81
2023/03/25 13:28:37;;;;;;;;;0.00;0.00;;;;;;;;4964643;28;9355;-78
2023/03/25 13:31:15;;;;;;;;;0.00;0.00;;;;;;;;4980477;28;9487;-80
2023/03/25 13:34:05;;;;;;;;;1.00;0.00;;;;;;;;4981030;28;9457;-79
2023/03/25 13:36:36;;;;;;;;;0.00;0.00;;;;;;;;4964097;28;9352;-81
2023/03/25 13:39:05;;;;;;;;;0.00;0.00;;;;;;;;4981063;28;9278;-81
2023/03/25 13:41:39;;;;;;;;;0.33;0.33;;;;;;;;4983692;28;9215;-80
2023/03/25 13:44:29;;;;;;;;;1.67;0.00;;;;;;;;5073613;28;9239;-81
2023/03/25 13:47:00;;;;;;;;;0.33;0.00;;;;;;;;5076817;28;9187;-80
2023/03/25 13:49:36;;;;;;;;;2.00;1.00;;;;;;;;5083436;28;9188;-80
2023/03/25 13:52:02;;;;;;;;;1.00;0.00;;;;;;;;5061875;28;9269;-80
2023/03/25 13:54:36;;;;;;;;;0.67;0.00;;;;;;;;5061584;28;10135;-80
2023/03/25 13:57:25;;;;;;;;;0.00;0.00;;;;;;;;5061837;28;8780;-80
2023/03/25 14:00:00;;;;;;;;;1.67;0.00;;;;;;;;5039771;28;9246;-81
2023/03/25 14:02:37;;;;;;;;;0.00;0.00;;;;;;;;5061785;28;9080;-80
2023/03/25 14:05:19;;;;;;;;;0.67;0.33;;;;;;;;5073251;28;9312;-80
2023/03/25 14:07:56;;;;;;;;;2.33;0.67;;;;;;;;5072579;28;8929;-80
2023/03/25 14:10:24;;;;;;;;;0.67;0.67;;;;;;;;5072369;28;9144;-80
2023/03/25 14:12:52;;;;;;;;;0.67;0.00;;;;;;;;5074177;28;9083;-81
2023/03/25 14:15:28;;;;;;;;;0.67;0.67;;;;;;;;5071017;28;10156;-81
2023/03/25 14:17:54;;;;;;;;;0.00;0.00;;;;;;;;5071199;28;9414;-82
2023/03/25 14:20:28;;;;;;;;;0.00;0.00;;;;;;;;5045180;28;9057;-80
2023/03/25 14:22:58;;;;;;;;;1.33;0.67;;;;;;;;5045017;28;9078;-81
2023/03/25 14:25:37;;;;;;;;;0.33;0.33;;;;;;;;5044298;28;10973;-81
2023/03/25 14:28:03;;;;;;;;;1.00;0.00;;;;;;;;5063083;28;9783;-81
2023/03/25 14:30:31;;;;;;;;;0.75;0.00;;;;;;;;5062604;28;8838;-80
2023/03/25 14:32:57;;;;;;;;;0.00;0.00;;;;;;;;5045327;28;8735;-80
2023/03/25 14:35:37;;;;;;;;;0.33;0.00;;;;;;;;5044978;28;9858;-81
2023/03/25 14:38:10;;;;;;;;;0.00;0.00;;;;;;;;5044939;28;10060;-81
2023/03/25 14:40:42;;;;;;;;;0.00;0.00;;;;;;;;5062214;28;8798;-80
2023/03/25 14:43:26;;;;;;;;;2.50;0.00;;;;;;;;5044730;28;8798;-80
2023/03/25 14:46:04;;;;;;;;;0.25;0.25;;;;;;;;5045915;28;10081;-80
2023/03/25 14:48:30;;;;;;;;;1.75;0.00;;;;;;;;5077853;28;8800;-80
2023/03/25 14:51:08;;;;;;;;;1.75;0.00;;;;;;;;5052446;28;8967;-80
2023/03/25 14:53:33;;;;;;;;;0.00;0.00;;;;;;;;5067509;28;8748;-80
2023/03/25 14:56:01;;;;;;;;;0.00;0.00;;;;;;;;5044048;28;9885;-81
2023/03/25 14:58:27;;;;;;;;;0.33;0.33;;;;;;;;5048727;28;8867;-80
2023/03/25 15:01:03;;;;;;;;;1.00;0.67;;;;;;;;5064211;28;9034;-81
2023/03/25 15:03:36;;;;;;;;;1.33;0.00;;;;;;;;5082511;28;9067;-80